sensor_id;sensor_type;location;lat;lon;timestamp;pressure;altitude;pressure_sealevel;temperature;humidity
68822;BME280;55834;50.870;4.606;2023-01-30T00:01:40;101416.00;;;3.11;67.29
68822;BME280;55834;50.870;4.606;2023-01-30T00:04:06;101415.00;;;3.00;66.63
68822;BME280;55834;50.870;4.606;2023-01-30T00:06:32;101418.31;;;3.54;65.62
68822;BME280;55834;50.870;4.606;2023-01-30T00:08:57;101411.75;;;3.16;65.82
68822;BME280;55834;50.870;4.606;2023-01-30T00:11:23;101417.50;;;2.36;67.93
68822;BME280;55834;50.870;4.606;2023-01-30T00:13:49;101410.94;;;2.60;67.52
68822;BME280;55834;50.870;4.606;2023-01-30T00:16:15;101395.78;;;2.36;68.74
68822;BME280;55834;50.870;4.606;2023-01-30T00:18:41;101397.66;;;2.44;69.39
68822;BME280;55834;50.870;4.606;2023-01-30T00:21:09;101391.94;;;2.68;68.48
68822;BME280;55834;50.870;4.606;2023-01-30T00:23:35;101402.38;;;2.68;68.41
68822;BME280;55834;50.870;4.606;2023-01-30T00:26:01;101382.53;;;2.81;67.19
68822;BME280;55834;50.870;4.606;2023-01-30T00:28:27;101400.63;;;2.13;69.74
68822;BME280;55834;50.870;4.606;2023-01-30T00:30:54;101385.06;;;2.73;68.76
68822;BME280;55834;50.870;4.606;2023-01-30T00:33:20;101365.38;;;2.99;67.61
68822;BME280;55834;50.870;4.606;2023-01-30T00:35:49;101355.72;;;2.90;67.13
68822;BME280;55834;50.870;4.606;2023-01-30T00:38:16;101341.31;;;2.54;69.07
68822;BME280;55834;50.870;4.606;2023-01-30T00:40:42;101350.44;;;2.24;70.22
68822;BME280;55834;50.870;4.606;2023-01-30T00:43:16;101372.06;;;2.19;69.76
68822;BME280;55834;50.870;4.606;2023-01-30T00:46:02;101360.72;;;2.75;69.18
68822;BME280;55834;50.870;4.606;2023-01-30T00:49:00;101363.69;;;3.01;69.04
68822;BME280;55834;50.870;4.606;2023-01-30T00:51:26;101353.66;;;3.31;66.60
68822;BME280;55834;50.870;4.606;2023-01-30T00:53:51;101372.84;;;2.72;68.32
68822;BME280;55834;50.870;4.606;2023-01-30T00:56:16;101359.94;;;2.80;67.61
68822;BME280;55834;50.870;4.606;2023-01-30T00:58:42;101354.53;;;2.66;69.02
68822;BME280;55834;50.870;4.606;2023-01-30T01:01:07;101349.50;;;2.80;68.52
68822;BME280;55834;50.870;4.606;2023-01-30T01:03:32;101363.88;;;2.50;69.20
68822;BME280;55834;50.870;4.606;2023-01-30T01:05:57;101366.81;;;2.17;70.12
68822;BME280;55834;50.870;4.606;2023-01-30T01:08:23;101362.59;;;2.82;69.04
68822;BME280;55834;50.870;4.606;2023-01-30T01:10:48;101374.72;;;2.80;67.79
68822;BME280;55834;50.870;4.606;2023-01-30T01:13:13;101368.31;;;3.22;67.08
68822;BME280;55834;50.870;4.606;2023-01-30T01:15:39;101363.00;;;3.15;66.33
68822;BME280;55834;50.870;4.606;2023-01-30T01:18:05;101359.69;;;3.26;66.09
68822;BME280;55834;50.870;4.606;2023-01-30T01:20:30;101370.00;;;3.18;67.45
68822;BME280;55834;50.870;4.606;2023-01-30T01:22:56;101365.81;;;3.29;66.84
68822;BME280;55834;50.870;4.606;2023-01-30T01:25:22;101367.38;;;3.18;66.59
68822;BME280;55834;50.870;4.606;2023-01-30T01:27:48;101348.34;;;3.24;66.34
68822;BME280;55834;50.870;4.606;2023-01-30T01:30:14;101351.44;;;2.34;68.68
68822;BME280;55834;50.870;4.606;2023-01-30T01:32:40;101335.03;;;3.04;67.56
68822;BME280;55834;50.870;4.606;2023-01-30T01:35:05;101331.72;;;3.17;67.97
68822;BME280;55834;50.870;4.606;2023-01-30T01:37:31;101332.53;;;3.11;67.33
68822;BME280;55834;50.870;4.606;2023-01-30T01:39:56;101331.28;;;3.56;66.43
68822;BME280;55834;50.870;4.606;2023-01-30T01:42:41;101337.47;;;3.65;65.19
68822;BME280;55834;50.870;4.606;2023-01-30T01:47:41;101320.63;;;2.65;67.99
68822;BME280;55834;50.870;4.606;2023-01-30T01:50:37;101323.53;;;3.62;66.25
68822;BME280;55834;50.870;4.606;2023-01-30T01:53:05;101330.22;;;3.36;65.94
68822;BME280;55834;50.870;4.606;2023-01-30T01:55:30;101333.53;;;3.21;66.05
68822;BME280;55834;50.870;4.606;2023-01-30T01:58:01;101338.97;;;3.39;66.76
68822;BME280;55834;50.870;4.606;2023-01-30T02:00:29;101323.31;;;3.39;66.42
68822;BME280;55834;50.870;4.606;2023-01-30T02:02:58;101318.88;;;3.32;66.29
68822;BME280;55834;50.870;4.606;2023-01-30T02:05:27;101330.31;;;3.44;66.06
68822;BME280;55834;50.870;4.606;2023-01-30T02:08:11;101307.78;;;3.56;65.66
68822;BME280;55834;50.870;4.606;2023-01-30T02:11:19;101306.28;;;3.01;67.49
68822;BME280;55834;50.870;4.606;2023-01-30T02:13:40;101328.59;;;2.76;69.30
68822;BME280;55834;50.870;4.606;2023-01-30T02:16:07;101311.53;;;3.02;68.06
68822;BME280;55834;50.870;4.606;2023-01-30T02:18:35;101310.44;;;2.83;67.44
68822;BME280;55834;50.870;4.606;2023-01-30T02:26:58;101323.78;;;3.09;68.00
68822;BME280;55834;50.870;4.606;2023-01-30T02:32:36;101307.44;;;3.20;67.46
68822;BME280;55834;50.870;4.606;2023-01-30T02:38:07;101287.47;;;3.26;67.05
68822;BME280;55834;50.870;4.606;2023-01-30T02:43:27;101240.19;;;3.89;65.12
68822;BME280;55834;50.870;4.606;2023-01-30T02:46:04;101247.50;;;3.30;65.90
68822;BME280;55834;50.870;4.606;2023-01-30T02:49:10;101241.16;;;4.03;66.17
68822;BME280;55834;50.870;4.606;2023-01-30T02:51:38;101246.19;;;3.77;65.35
68822;BME280;55834;50.870;4.606;2023-01-30T02:54:06;101240.88;;;3.68;66.33
68822;BME280;55834;50.870;4.606;2023-01-30T02:56:49;101236.38;;;3.48;66.89
68822;BME280;55834;50.870;4.606;2023-01-30T02:59:19;101240.34;;;3.15;67.39
68822;BME280;55834;50.870;4.606;2023-01-30T03:08:02;101247.97;;;3.84;66.76
68822;BME280;55834;50.870;4.606;2023-01-30T03:10:48;101232.28;;;3.82;66.90
68822;BME280;55834;50.870;4.606;2023-01-30T03:15:56;101239.97;;;3.59;67.03
68822;BME280;55834;50.870;4.606;2023-01-30T03:18:24;101224.56;;;3.95;66.52
68822;BME280;55834;50.870;4.606;2023-01-30T03:20:49;101232.50;;;4.12;65.09
68822;BME280;55834;50.870;4.606;2023-01-30T03:23:15;101233.28;;;4.01;66.59
68822;BME280;55834;50.870;4.606;2023-01-30T03:25:42;101231.56;;;4.03;67.26
68822;BME280;55834;50.870;4.606;2023-01-30T03:28:09;101230.75;;;4.12;66.37
68822;BME280;55834;50.870;4.606;2023-01-30T03:30:36;101221.69;;;3.59;67.05
68822;BME280;55834;50.870;4.606;2023-01-30T03:33:02;101214.88;;;3.84;66.70
68822;BME280;55834;50.870;4.606;2023-01-30T03:35:28;101216.78;;;4.04;66.52
68822;BME280;55834;50.870;4.606;2023-01-30T03:37:53;101219.41;;;4.07;66.04
68822;BME280;55834;50.870;4.606;2023-01-30T03:40:19;101229.53;;;3.62;67.15
68822;BME280;55834;50.870;4.606;2023-01-30T03:42:44;101227.97;;;3.88;66.36
68822;BME280;55834;50.870;4.606;2023-01-30T03:45:10;101240.69;;;3.48;68.25
68822;BME280;55834;50.870;4.606;2023-01-30T03:47:35;101223.00;;;3.17;69.83
68822;BME280;55834;50.870;4.606;2023-01-30T03:50:01;101222.31;;;3.31;69.76
68822;BME280;55834;50.870;4.606;2023-01-30T03:52:26;101216.16;;;3.27;69.15
68822;BME280;55834;50.870;4.606;2023-01-30T03:54:52;101214.09;;;2.97;69.32
68822;BME280;55834;50.870;4.606;2023-01-30T03:57:17;101205.03;;;3.47;68.30
68822;BME280;55834;50.870;4.606;2023-01-30T03:59:42;101202.72;;;3.88;68.01
68822;BME280;55834;50.870;4.606;2023-01-30T04:02:08;101212.97;;;3.62;67.84
68822;BME280;55834;50.870;4.606;2023-01-30T04:04:34;101204.44;;;3.80;67.74
68822;BME280;55834;50.870;4.606;2023-01-30T04:06:59;101211.47;;;3.96;66.56
68822;BME280;55834;50.870;4.606;2023-01-30T04:09:25;101205.34;;;3.87;68.26
68822;BME280;55834;50.870;4.606;2023-01-30T04:11:50;101219.91;;;3.54;68.65
68822;BME280;55834;50.870;4.606;2023-01-30T04:14:15;101210.63;;;3.94;69.26
68822;BME280;55834;50.870;4.606;2023-01-30T04:16:41;101204.78;;;4.41;67.87
68822;BME280;55834;50.870;4.606;2023-01-30T04:19:06;101207.25;;;4.20;66.95
68822;BME280;55834;50.870;4.606;2023-01-30T04:21:32;101206.38;;;4.12;68.70
68822;BME280;55834;50.870;4.606;2023-01-30T04:23:57;101202.09;;;4.29;67.26
68822;BME280;55834;50.870;4.606;2023-01-30T04:26:22;101209.00;;;4.19;68.32
68822;BME280;55834;50.870;4.606;2023-01-30T04:28:48;101213.69;;;3.41;69.99
68822;BME280;55834;50.870;4.606;2023-01-30T04:31:13;101201.94;;;4.01;69.10
68822;BME280;55834;50.870;4.606;2023-01-30T04:33:39;101206.31;;;4.08;69.11
68822;BME280;55834;50.870;4.606;2023-01-30T04:36:05;101205.44;;;4.03;68.70
68822;BME280;55834;50.870;4.606;2023-01-30T04:38:32;101201.94;;;4.01;69.33
68822;BME280;55834;50.870;4.606;2023-01-30T04:40:57;101202.94;;;4.28;69.31
68822;BME280;55834;50.870;4.606;2023-01-30T04:43:26;101196.88;;;4.26;68.43
68822;BME280;55834;50.870;4.606;2023-01-30T04:45:52;101198.41;;;3.92;69.51
68822;BME280;55834;50.870;4.606;2023-01-30T04:48:20;101195.44;;;3.43;71.32
68822;BME280;55834;50.870;4.606;2023-01-30T04:50:49;101182.78;;;4.02;70.63
68822;BME280;55834;50.870;4.606;2023-01-30T04:53:16;101180.97;;;3.86;70.93
68822;BME280;55834;50.870;4.606;2023-01-30T04:55:42;101190.13;;;3.32;71.16
68822;BME280;55834;50.870;4.606;2023-01-30T04:58:07;101173.19;;;4.01;69.70
68822;BME280;55834;50.870;4.606;2023-01-30T05:00:33;101181.19;;;4.26;69.92
68822;BME280;55834;50.870;4.606;2023-01-30T05:02:58;101183.81;;;4.32;69.20
68822;BME280;55834;50.870;4.606;2023-01-30T05:05:25;101187.25;;;4.25;68.39
68822;BME280;55834;50.870;4.606;2023-01-30T05:07:50;101175.88;;;4.17;69.07
68822;BME280;55834;50.870;4.606;2023-01-30T05:10:16;101181.06;;;4.04;68.85
68822;BME280;55834;50.870;4.606;2023-01-30T05:12:42;101190.56;;;3.92;70.05
68822;BME280;55834;50.870;4.606;2023-01-30T05:15:08;101190.31;;;3.55;71.51
68822;BME280;55834;50.870;4.606;2023-01-30T05:17:34;101188.53;;;3.51;71.47
68822;BME280;55834;50.870;4.606;2023-01-30T05:19:59;101183.56;;;3.88;71.00
68822;BME280;55834;50.870;4.606;2023-01-30T05:22:25;101184.59;;;3.03;73.16
68822;BME280;55834;50.870;4.606;2023-01-30T05:24:50;101190.47;;;3.79;71.29
68822;BME280;55834;50.870;4.606;2023-01-30T05:27:15;101184.47;;;3.93;71.10
68822;BME280;55834;50.870;4.606;2023-01-30T05:29:41;101174.13;;;4.14;71.41
68822;BME280;55834;50.870;4.606;2023-01-30T05:32:06;101166.34;;;4.20;69.80
68822;BME280;55834;50.870;4.606;2023-01-30T05:34:32;101186.22;;;3.95;70.04
68822;BME280;55834;50.870;4.606;2023-01-30T05:36:57;101204.38;;;2.82;74.27
68822;BME280;55834;50.870;4.606;2023-01-30T05:39:22;101187.81;;;3.73;71.83
68822;BME280;55834;50.870;4.606;2023-01-30T05:41:48;101186.25;;;4.00;71.32
68822;BME280;55834;50.870;4.606;2023-01-30T05:44:13;101195.13;;;4.34;69.80
68822;BME280;55834;50.870;4.606;2023-01-30T05:46:38;101196.81;;;4.23;70.06
68822;BME280;55834;50.870;4.606;2023-01-30T05:49:04;101196.09;;;4.50;69.31
68822;BME280;55834;50.870;4.606;2023-01-30T05:51:29;101193.53;;;4.65;68.98
68822;BME280;55834;50.870;4.606;2023-01-30T05:53:55;101208.78;;;3.81;71.82
68822;BME280;55834;50.870;4.606;2023-01-30T05:56:21;101200.44;;;4.45;70.80
68822;BME280;55834;50.870;4.606;2023-01-30T05:58:53;101205.34;;;3.87;70.36
68822;BME280;55834;50.870;4.606;2023-01-30T06:01:20;101208.50;;;3.47;72.13
68822;BME280;55834;50.870;4.606;2023-01-30T06:03:46;101191.44;;;3.94;72.50
68822;BME280;55834;50.870;4.606;2023-01-30T06:06:12;101194.00;;;3.84;71.74
68822;BME280;55834;50.870;4.606;2023-01-30T06:08:37;101198.41;;;3.93;71.82
68822;BME280;55834;50.870;4.606;2023-01-30T06:11:05;101199.53;;;4.38;70.37
68822;BME280;55834;50.870;4.606;2023-01-30T06:13:32;101205.53;;;4.22;71.08
68822;BME280;55834;50.870;4.606;2023-01-30T06:15:57;101218.66;;;4.29;71.18
68822;BME280;55834;50.870;4.606;2023-01-30T06:18:22;101225.72;;;4.47;70.15
68822;BME280;55834;50.870;4.606;2023-01-30T06:20:49;101227.38;;;4.33;70.00
68822;BME280;55834;50.870;4.606;2023-01-30T06:23:15;101229.28;;;4.71;69.84
68822;BME280;55834;50.870;4.606;2023-01-30T06:25:48;101238.03;;;4.79;69.18
68822;BME280;55834;50.870;4.606;2023-01-30T06:28:15;101257.56;;;3.83;72.07
68822;BME280;55834;50.870;4.606;2023-01-30T06:30:41;101238.59;;;4.09;70.30
68822;BME280;55834;50.870;4.606;2023-01-30T06:33:07;101238.53;;;4.01;71.47
68822;BME280;55834;50.870;4.606;2023-01-30T06:35:33;101252.31;;;3.85;72.39
68822;BME280;55834;50.870;4.606;2023-01-30T06:37:58;101237.78;;;4.22;71.04
68822;BME280;55834;50.870;4.606;2023-01-30T06:40:23;101244.56;;;3.93;72.28
68822;BME280;55834;50.870;4.606;2023-01-30T06:42:48;101254.78;;;3.65;71.82
68822;BME280;55834;50.870;4.606;2023-01-30T06:45:15;101255.78;;;3.81;72.72
68822;BME280;55834;50.870;4.606;2023-01-30T06:47:49;101238.69;;;4.30;70.26
68822;BME280;55834;50.870;4.606;2023-01-30T06:50:16;101253.94;;;3.66;73.30
68822;BME280;55834;50.870;4.606;2023-01-30T06:52:46;101251.91;;;4.57;70.17
68822;BME280;55834;50.870;4.606;2023-01-30T06:55:15;101263.91;;;4.21;69.40
68822;BME280;55834;50.870;4.606;2023-01-30T06:57:42;101271.06;;;4.49;70.69
68822;BME280;55834;50.870;4.606;2023-01-30T07:00:12;101257.25;;;4.92;68.59
68822;BME280;55834;50.870;4.606;2023-01-30T07:02:38;101246.91;;;5.07;67.94
68822;BME280;55834;50.870;4.606;2023-01-30T07:05:05;101239.09;;;5.30;66.77
68822;BME280;55834;50.870;4.606;2023-01-30T07:07:32;101246.84;;;5.03;66.76
68822;BME280;55834;50.870;4.606;2023-01-30T07:09:58;101242.56;;;5.29;66.58
68822;BME280;55834;50.870;4.606;2023-01-30T07:12:25;101252.78;;;4.60;68.01
68822;BME280;55834;50.870;4.606;2023-01-30T07:14:51;101252.88;;;4.89;67.17
68822;BME280;55834;50.870;4.606;2023-01-30T07:17:17;101240.72;;;5.01;67.46
68822;BME280;55834;50.870;4.606;2023-01-30T07:19:43;101249.41;;;4.84;66.99
68822;BME280;55834;50.870;4.606;2023-01-30T07:22:09;101253.88;;;5.24;66.26
68822;BME280;55834;50.870;4.606;2023-01-30T07:24:34;101239.09;;;5.42;65.47
68822;BME280;55834;50.870;4.606;2023-01-30T07:26:59;101247.75;;;5.18;65.30
68822;BME280;55834;50.870;4.606;2023-01-30T07:29:24;101248.38;;;4.51;67.29
68822;BME280;55834;50.870;4.606;2023-01-30T07:31:50;101254.78;;;5.19;66.55
68822;BME280;55834;50.870;4.606;2023-01-30T07:34:15;101259.78;;;4.69;66.86
68822;BME280;55834;50.870;4.606;2023-01-30T07:36:41;101260.50;;;4.37;68.36
68822;BME280;55834;50.870;4.606;2023-01-30T07:39:06;101262.38;;;4.63;67.94
68822;BME280;55834;50.870;4.606;2023-01-30T07:41:33;101268.59;;;4.89;66.70
68822;BME280;55834;50.870;4.606;2023-01-30T07:43:59;101262.59;;;5.07;66.17
68822;BME280;55834;50.870;4.606;2023-01-30T07:46:24;101277.47;;;5.16;65.42
68822;BME280;55834;50.870;4.606;2023-01-30T07:48:50;101287.06;;;5.20;66.20
68822;BME280;55834;50.870;4.606;2023-01-30T07:51:15;101290.34;;;4.74;67.46
68822;BME280;55834;50.870;4.606;2023-01-30T07:53:40;101303.66;;;5.25;65.17
68822;BME280;55834;50.870;4.606;2023-01-30T07:56:09;101291.31;;;4.99;66.61
68822;BME280;55834;50.870;4.606;2023-01-30T07:58:38;101291.38;;;5.15;65.02
68822;BME280;55834;50.870;4.606;2023-01-30T08:01:03;101290.56;;;5.28;65.36
68822;BME280;55834;50.870;4.606;2023-01-30T08:03:31;101292.28;;;5.23;64.69
68822;BME280;55834;50.870;4.606;2023-01-30T08:05:56;101294.81;;;5.02;65.46
68822;BME280;55834;50.870;4.606;2023-01-30T08:08:22;101290.47;;;5.05;65.91
68822;BME280;55834;50.870;4.606;2023-01-30T08:10:47;101296.69;;;5.33;66.36
68822;BME280;55834;50.870;4.606;2023-01-30T08:13:13;101303.38;;;4.65;66.72
68822;BME280;55834;50.870;4.606;2023-01-30T08:15:38;101307.69;;;4.52;67.25
68822;BME280;55834;50.870;4.606;2023-01-30T08:18:04;101312.06;;;4.63;66.22
68822;BME280;55834;50.870;4.606;2023-01-30T08:20:31;101324.84;;;4.17;68.06
68822;BME280;55834;50.870;4.606;2023-01-30T08:22:57;101301.53;;;4.46;66.77
68822;BME280;55834;50.870;4.606;2023-01-30T08:25:23;101296.53;;;4.90;65.44
68822;BME280;55834;50.870;4.606;2023-01-30T08:27:48;101301.78;;;5.03;64.24
68822;BME280;55834;50.870;4.606;2023-01-30T08:30:13;101308.94;;;5.36;62.97
68822;BME280;55834;50.870;4.606;2023-01-30T08:32:39;101324.59;;;5.25;62.68
68822;BME280;55834;50.870;4.606;2023-01-30T08:35:05;101322.56;;;4.66;63.93
68822;BME280;55834;50.870;4.606;2023-01-30T08:37:30;101321.75;;;4.84;63.85
68822;BME280;55834;50.870;4.606;2023-01-30T08:39:55;101327.88;;;4.81;63.08
68822;BME280;55834;50.870;4.606;2023-01-30T08:42:21;101330.41;;;4.69;62.92
68822;BME280;55834;50.870;4.606;2023-01-30T08:44:46;101332.34;;;5.05;61.72
68822;BME280;55834;50.870;4.606;2023-01-30T08:47:11;101322.69;;;4.98;61.90
68822;BME280;55834;50.870;4.606;2023-01-30T08:49:37;101347.56;;;4.24;62.40
68822;BME280;55834;50.870;4.606;2023-01-30T08:52:02;101338.78;;;4.13;63.09
68822;BME280;55834;50.870;4.606;2023-01-30T08:54:27;101328.06;;;5.16;60.20
68822;BME280;55834;50.870;4.606;2023-01-30T08:56:53;101332.44;;;5.24;59.87
68822;BME280;55834;50.870;4.606;2023-01-30T08:59:18;101345.47;;;5.10;59.40
68822;BME280;55834;50.870;4.606;2023-01-30T09:01:43;101334.28;;;5.51;58.90
68822;BME280;55834;50.870;4.606;2023-01-30T09:04:09;101353.03;;;4.59;60.21
68822;BME280;55834;50.870;4.606;2023-01-30T09:06:34;101369.38;;;4.27;61.12
68822;BME280;55834;50.870;4.606;2023-01-30T09:08:59;101362.88;;;5.05;58.51
68822;BME280;55834;50.870;4.606;2023-01-30T09:11:25;101374.19;;;4.96;58.23
68822;BME280;55834;50.870;4.606;2023-01-30T09:13:51;101389.78;;;3.72;62.41
68822;BME280;55834;50.870;4.606;2023-01-30T09:16:17;101362.63;;;4.59;60.76
68822;BME280;55834;50.870;4.606;2023-01-30T09:18:43;101373.94;;;4.58;59.88
68822;BME280;55834;50.870;4.606;2023-01-30T09:21:10;101370.66;;;4.94;58.42
68822;BME280;55834;50.870;4.606;2023-01-30T09:23:36;101359.16;;;4.63;58.74
68822;BME280;55834;50.870;4.606;2023-01-30T09:26:02;101366.16;;;4.65;57.90
68822;BME280;55834;50.870;4.606;2023-01-30T09:28:28;101371.41;;;4.68;58.34
68822;BME280;55834;50.870;4.606;2023-01-30T09:30:57;101386.28;;;4.75;57.42
68822;BME280;55834;50.870;4.606;2023-01-30T09:33:23;101385.56;;;3.88;58.94
68822;BME280;55834;50.870;4.606;2023-01-30T09:35:49;101386.09;;;4.48;58.72
68822;BME280;55834;50.870;4.606;2023-01-30T09:38:16;101374.06;;;4.78;56.72
68822;BME280;55834;50.870;4.606;2023-01-30T09:40:53;101371.69;;;5.13;55.48
68822;BME280;55834;50.870;4.606;2023-01-30T09:46:50;101389.81;;;4.82;56.34
68822;BME280;55834;50.870;4.606;2023-01-30T09:49:36;101384.81;;;5.28;54.72
68822;BME280;55834;50.870;4.606;2023-01-30T09:55:22;101414.44;;;5.16;55.72
68822;BME280;55834;50.870;4.606;2023-01-30T09:57:49;101429.50;;;4.26;57.83
68822;BME280;55834;50.870;4.606;2023-01-30T10:00:33;101409.94;;;4.95;55.70
68822;BME280;55834;50.870;4.606;2023-01-30T10:03:09;101414.53;;;5.33;54.17
68822;BME280;55834;50.870;4.606;2023-01-30T10:06:04;101411.38;;;4.50;54.03
68822;BME280;55834;50.870;4.606;2023-01-30T10:08:49;101408.16;;;4.91;54.50
68822;BME280;55834;50.870;4.606;2023-01-30T10:16:20;101443.50;;;4.37;55.42
68822;BME280;55834;50.870;4.606;2023-01-30T10:27:01;101429.94;;;4.86;54.60
68822;BME280;55834;50.870;4.606;2023-01-30T10:29:32;101431.91;;;5.20;53.44
68822;BME280;55834;50.870;4.606;2023-01-30T10:32:10;101444.41;;;4.39;54.47
68822;BME280;55834;50.870;4.606;2023-01-30T10:34:39;101446.13;;;4.37;55.39
68822;BME280;55834;50.870;4.606;2023-01-30T10:37:14;101446.00;;;4.22;55.65
68822;BME280;55834;50.870;4.606;2023-01-30T10:40:04;101430.59;;;4.52;54.59
68822;BME280;55834;50.870;4.606;2023-01-30T10:42:46;101454.47;;;5.06;53.40
68822;BME280;55834;50.870;4.606;2023-01-30T10:45:17;101438.84;;;5.08;54.01
68822;BME280;55834;50.870;4.606;2023-01-30T10:50:58;101450.97;;;5.03;54.33
68822;BME280;55834;50.870;4.606;2023-01-30T10:53:37;101450.28;;;5.28;53.70
68822;BME280;55834;50.870;4.606;2023-01-30T10:56:12;101451.94;;;5.11;54.41
68822;BME280;55834;50.870;4.606;2023-01-30T10:59:05;101442.38;;;5.20;53.00
68822;BME280;55834;50.870;4.606;2023-01-30T11:01:38;101450.16;;;5.07;53.67
68822;BME280;55834;50.870;4.606;2023-01-30T11:04:18;101460.44;;;4.82;53.62
68822;BME280;55834;50.870;4.606;2023-01-30T11:06:49;101450.38;;;5.56;53.30
68822;BME280;55834;50.870;4.606;2023-01-30T11:09:16;101452.16;;;5.64;52.27
68822;BME280;55834;50.870;4.606;2023-01-30T11:11:47;101444.19;;;5.32;53.72
68822;BME280;55834;50.870;4.606;2023-01-30T11:14:13;101436.44;;;5.63;53.23
68822;BME280;55834;50.870;4.606;2023-01-30T11:16:50;101439.91;;;5.48;52.09
68822;BME280;55834;50.870;4.606;2023-01-30T11:19:19;101450.41;;;5.57;51.57
68822;BME280;55834;50.870;4.606;2023-01-30T11:21:51;101451.16;;;5.32;52.60
68822;BME280;55834;50.870;4.606;2023-01-30T11:24:22;101446.03;;;5.61;52.05
68822;BME280;55834;50.870;4.606;2023-01-30T11:26:48;101448.63;;;5.52;51.57
68822;BME280;55834;50.870;4.606;2023-01-30T11:29:31;101461.13;;;4.60;52.74
68822;BME280;55834;50.870;4.606;2023-01-30T11:32:24;101454.13;;;4.57;53.39
68822;BME280;55834;50.870;4.606;2023-01-30T11:35:24;101454.91;;;4.45;52.89
68822;BME280;55834;50.870;4.606;2023-01-30T11:37:50;101448.47;;;5.18;52.22
68822;BME280;55834;50.870;4.606;2023-01-30T11:40:27;101446.44;;;4.72;52.39
68822;BME280;55834;50.870;4.606;2023-01-30T11:43:11;101452.50;;;4.68;53.17
68822;BME280;55834;50.870;4.606;2023-01-30T11:45:40;101445.47;;;4.61;53.92
68822;BME280;55834;50.870;4.606;2023-01-30T11:48:15;101451.72;;;4.86;53.17
68822;BME280;55834;50.870;4.606;2023-01-30T11:50:43;101442.66;;;4.35;53.22
68822;BME280;55834;50.870;4.606;2023-01-30T11:53:16;101444.59;;;4.61;54.30
68822;BME280;55834;50.870;4.606;2023-01-30T11:55:45;101432.72;;;5.12;53.03
68822;BME280;55834;50.870;4.606;2023-01-30T11:58:12;101435.84;;;4.56;54.53
68822;BME280;55834;50.870;4.606;2023-01-30T12:00:41;101439.03;;;4.21;55.28
68822;BME280;55834;50.870;4.606;2023-01-30T12:03:12;101432.47;;;4.75;53.13
68822;BME280;55834;50.870;4.606;2023-01-30T12:05:40;101435.09;;;4.75;53.90
68822;BME280;55834;50.870;4.606;2023-01-30T12:10:59;101435.66;;;4.33;53.75
68822;BME280;55834;50.870;4.606;2023-01-30T12:13:37;101434.06;;;4.54;53.26
68822;BME280;55834;50.870;4.606;2023-01-30T12:16:15;101451.41;;;4.42;53.71
68822;BME280;55834;50.870;4.606;2023-01-30T12:18:53;101446.06;;;4.28;55.07
68822;BME280;55834;50.870;4.606;2023-01-30T12:26:43;101443.09;;;4.96;52.00
68822;BME280;55834;50.870;4.606;2023-01-30T12:29:35;101438.69;;;4.91;53.20
68822;BME280;55834;50.870;4.606;2023-01-30T12:32:10;101448.63;;;4.20;53.92
68822;BME280;55834;50.870;4.606;2023-01-30T12:34:37;101428.28;;;5.00;52.20
68822;BME280;55834;50.870;4.606;2023-01-30T12:40:10;101433.25;;;4.63;53.20
68822;BME280;55834;50.870;4.606;2023-01-30T12:45:25;101431.22;;;4.25;53.41
68822;BME280;55834;50.870;4.606;2023-01-30T12:55:54;101436.84;;;4.73;53.70
68822;BME280;55834;50.870;4.606;2023-01-30T12:58:31;101426.69;;;5.19;52.42
68822;BME280;55834;50.870;4.606;2023-01-30T13:03:48;101436.31;;;5.25;52.85
68822;BME280;55834;50.870;4.606;2023-01-30T13:06:35;101452.59;;;4.82;52.80
68822;BME280;55834;50.870;4.606;2023-01-30T13:09:17;101453.47;;;4.81;53.31
68822;BME280;55834;50.870;4.606;2023-01-30T13:12:03;101453.06;;;5.65;51.34
68822;BME280;55834;50.870;4.606;2023-01-30T13:20:02;101464.50;;;4.43;54.06
68822;BME280;55834;50.870;4.606;2023-01-30T13:22:56;101472.63;;;4.80;52.40
68822;BME280;55834;50.870;4.606;2023-01-30T13:28:18;101471.31;;;5.45;51.49
68822;BME280;55834;50.870;4.606;2023-01-30T13:30:46;101457.53;;;6.12;50.20
68822;BME280;55834;50.870;4.606;2023-01-30T13:33:19;101459.91;;;5.35;51.67
68822;BME280;55834;50.870;4.606;2023-01-30T13:35:51;101459.91;;;5.38;52.36
68822;BME280;55834;50.870;4.606;2023-01-30T13:38:23;101457.44;;;5.78;51.50
68822;BME280;55834;50.870;4.606;2023-01-30T13:40:51;101460.81;;;5.47;50.87
68822;BME280;55834;50.870;4.606;2023-01-30T13:43:37;101460.09;;;5.87;50.91
68822;BME280;55834;50.870;4.606;2023-01-30T13:46:10;101461.94;;;6.62;49.71
68822;BME280;55834;50.870;4.606;2023-01-30T13:54:12;101475.00;;;6.16;50.24
68822;BME280;55834;50.870;4.606;2023-01-30T13:57:45;101490.50;;;5.44;51.22
68822;BME280;55834;50.870;4.606;2023-01-30T14:00:26;101485.72;;;4.82;52.17
68822;BME280;55834;50.870;4.606;2023-01-30T14:11:46;101508.25;;;4.66;53.18
68822;BME280;55834;50.870;4.606;2023-01-30T14:14:22;101508.34;;;4.75;52.78
68822;BME280;55834;50.870;4.606;2023-01-30T14:16:52;101510.75;;;5.85;50.50
68822;BME280;55834;50.870;4.606;2023-01-30T14:19:32;101527.91;;;5.20;51.04
68822;BME280;55834;50.870;4.606;2023-01-30T14:22:02;101527.84;;;5.11;51.89
68822;BME280;55834;50.870;4.606;2023-01-30T14:24:28;101523.63;;;5.37;50.91
68822;BME280;55834;50.870;4.606;2023-01-30T14:32:09;101536.47;;;5.04;52.21
68822;BME280;55834;50.870;4.606;2023-01-30T14:39:59;101556.72;;;5.22;51.26
68822;BME280;55834;50.870;4.606;2023-01-30T14:42:27;101553.38;;;5.47;50.72
68822;BME280;55834;50.870;4.606;2023-01-30T14:45:09;101549.31;;;6.24;49.92
68822;BME280;55834;50.870;4.606;2023-01-30T14:47:37;101560.72;;;6.45;49.59
68822;BME280;55834;50.870;4.606;2023-01-30T14:50:18;101563.38;;;6.51;49.11
68822;BME280;55834;50.870;4.606;2023-01-30T14:52:45;101574.41;;;5.61;51.08
68822;BME280;55834;50.870;4.606;2023-01-30T14:55:31;101566.78;;;6.16;49.53
68822;BME280;55834;50.870;4.606;2023-01-30T14:58:00;101568.63;;;6.65;49.28
68822;BME280;55834;50.870;4.606;2023-01-30T15:00:29;101569.47;;;6.41;47.74